Impacts TAF Board INFO
FOR SITUATIONAL AWARENESS. NOT TO BE USED FOR FLIGHT PLANNING PURPOSES.
IDs:

KEWR - Newark Intl, NJ, US

Issued at 0638 UTC 18 Feb 2018
Updated at 0658 UTC 18 Feb 2018
Potential Impact None Slight Moderate High
Time0651Z 18/07Z 18/08Z 18/09Z 18/10Z 18/11Z 18/12Z 18/13Z 18/14Z 18/15Z 18/16Z 18/17Z 18/18Z 18/19Z>>
Type OBS PRVL
  [TEMP]  
PRVL PRVL PRVL PRVL PRVL PRVL PRVL PRVL PRVL PRVL PRVL PRVL
VIS 7 4
  [3]  
>6 >6 >6 >6 >6 >6 >6 >6 >6 >6 >6 >6
CIG 5 25
  [7]  
80 80 80 80 -- -- -- -- -- -- -- --
Cover OVC OVC
  [OVC]  
BKN BKN BKN BKN FEW FEW FEW FEW FEW FEW FEW SKC
FltCat IFR MVFR
  [IFR]  
VFR VFR VFR VFR VFR VFR VFR VFR VFR VFR VFR VFR
WX -- BR
  [BR]  
-- -- -- -- -- -- -- -- -- -- -- --
WDir 300 350
[350]
300 300 300 300 300 300 300 300 300 300 300 280
WSpd 6 5
  [5]  
8 8 8 8 12 12 12 12 12 12 12 9
WGst -- --
  [--]  
-- -- -- -- 20 20 20 20 20 20 20 --

Raw TAF
KEWR 180638Z 1807/1912 35005KT 4SM BR SCT007 OVC025
  TEMPO 1807/1808 3SM BR BKN007 OVC015
  FM180800 30008KT P6SM SCT008 BKN080
  FM181200 30012G20KT P6SM FEW035
  FM181900 28009KT P6SM SKC
  FM190000 VRB04KT P6SM SKC
  FM191000 17005KT P6SM SKC


Raw METAR
KEWR 180651Z 30006KT 7SM BKN005 OVC009 01/00 A2997 RMK AO2 SNE0558 SLP148 P0000 T00110000
KEWR 180558Z 03003KT 4SM BR OVC007 01/01 A2997 RMK AO2 SNE58 P0000 T00060006
KEWR 180551Z COR 01004KT 3SM -SN BR OVC007 01/01 A2998 RMK AO2 SLP150 931024 4/003 P0000 60042 T00060006 10011 20000 58034
KEWR 180534Z 04004KT 3SM -SN BR BKN007 OVC015 01/01 A2998 RMK AO2 P0000 T00060006
KEWR 180451Z 02004KT 3/4SM R04R/P6000FT -SN BR BKN005 OVC030 01/00 A3001 RMK AO2 SFC VIS 1 1/2 SLP162 P0004 T00060000 400391039
KEWR 180351Z 04004KT 3/4SM R04R/P6000FT -SN BR BKN005 OVC014 01/00 A3005 RMK AO2 SFC VIS 1 1/2 SLP174 P0009 T00060000

METAR Board
Radar Display
Forecast Discussion

FOR SITUATIONAL AWARENESS. NOT TO BE USED FOR FLIGHT PLANNING PURPOSES.